Cashmere, Washington
Current Conditions -  °F | °C
As of 3:02 AM on Friday 19 Dec 2014 (Local Time) from KEAT Reporting Station
Moderate Fog Moderate Fog  
Wind Chill: 37°   Ceiling: 200
Heat Index: 37°   Visibility: 0.5mi
Dew Point: 35°   Wind: 3mph
Humidity: 93%   Direction: 260°W
Pressure: 29.86"   Gusts: NA
Location:  47.52°N, 120.47°W
Report Text: KEAT 191102Z AUTO 26003KT 1/2SM FG VV002 03/02 A2986 RMK AO2 T00280017
Loading
Personal Weather Stations






























Interactive Weather Map New forecast layout! Learn more

10-Day Weather Forecast

Advertisements
Track Severe Weather on mobile